Historyczne dane pomiarowe

Dodano dane terminowe – wersja testowa.

Dane z okresu 1951-2019

Wersja bazy: 1.34 [2019-03-16, lista zmian], aktualizacja planowana na 2019-04-15

Dane meteo z obszaru Polski uzyskane na podstawie danych udostępnionych przez Instytut Meteorologii i Gospodarki Wodnej – Państwowy Instytut Badawczy.

 

Wybierz Datę:    

       

TemperaturaWilgotnośćWiatrCiśnienieOpadyŚniegCzas trwania zjawisk
 Stacja t tx tn tng RH VA  wxwx mslp ppp RRR   cm mm wxwxwxwxwxwxwx
1965-06-13 12.8 16.3 11.1--- 4.3 4.0---- 0.0------------
1965-06-14 13.2 15.9 8.3--- 6.7 5.3---- 0.6------------
1965-06-15 13.4 20.0 9.7--- 3.3 2.0---- 0.0------------
1965-06-16 16.4 23.6 5.9--- 0.7 1.0---- 0.0------------
1965-06-17 17.8 24.1 9.0--- 2.3 5.3---- 2.3------------
1965-06-18 14.2 18.3 11.7--- 7.3 3.0---- 0.0------------
1965-06-19 16.2 21.9 12.4--- 5.3 2.3---- 3.2------------
1965-06-20 16.0 21.0 10.0--- 4.3 2.7---- 0.0------------
1965-06-21 16.4 23.5 8.4--- 2.0 1.0---- 0.0------------
1965-06-22 21.4 27.6 9.7--- 2.0 2.0---- 0.0------------
1965-06-23 18.7 25.3 12.9--- 3.3 2.3---- 0.0------------
1965-06-24 19.1 26.8 9.4--- 1.0 1.0---- 0.0------------
1965-06-25 19.6 26.9 10.1--- 0.0 1.0---- 0.0------------
1965-06-26 20.9 30.8 10.9--- 2.7 3.3---- 5.3------------
1965-06-27 20.5 26.6 14.2--- 2.3 2.3---- 14.9------------
1965-06-28 14.5 18.8 13.2--- 7.0 1.7---- 9.7------------
1965-06-29 15.4 21.1 7.2--- 1.7 2.0---- 0.0------------
1965-06-30 17.0 23.8 7.3--- 0.3 1.3---- 0.0------------
1965-07-01 17.7 23.9 10.4--- 5.3 1.0---- 2.8------------
1965-07-02 14.4 17.4 13.3--- 5.3 0.7---- 0.1------------
1965-07-03 13.1 16.9 10.6--- 7.3 3.0---- 2.2------------
1965-07-04 12.0 16.9 4.6--- 5.7 1.0---- 1.2------------
1965-07-05 12.1 15.2 7.5--- 7.0 0.3---- 1.7------------
1965-07-06 12.0 17.3 6.4--- 3.3 3.3---- 2.3------------
1965-07-07 14.7 20.7 7.8--- 2.7 1.7---- 0.0------------
1965-07-08 17.6 25.2 8.6--- 5.3 2.7---- 6.0------------
1965-07-09 13.7 17.7 12.3--- 3.0 2.3---- 0.0------------
1965-07-10 12.7 19.0 3.9--- 4.3 2.3---- 0.4------------
1965-07-11 12.0 17.8 4.4--- 3.7 1.0---- 0.0------------
1965-07-12 16.9 22.1 4.3--- 2.7 1.3---- 3.4------------
154.0 ms

 

Źródłem pochodzenia danych jest Instytut Meteorologii i Gospodarki Wodnej – Państwowy Instytut Badawczy. Dane Instytutu Meteorologii i Gospodarki Wodnej – Państwowego Instytutu Badawczego zostały przetworzone.

Dane źródłowe można odnaleźć na stronie https://dane.imgw.pl